sensor_id;sensor_type;location;lat;lon;timestamp;temperature;humidity
54898;DHT22;40800;52.704;6.398;2024-02-16T00:00:08;13.00;99.90
54898;DHT22;40800;52.704;6.398;2024-02-16T00:02:33;13.70;99.90
54898;DHT22;40800;52.704;6.398;2024-02-16T00:04:59;13.50;99.90
54898;DHT22;40800;52.704;6.398;2024-02-16T00:07:25;13.70;99.90
54898;DHT22;40800;52.704;6.398;2024-02-16T00:09:50;13.00;99.90
54898;DHT22;40800;52.704;6.398;2024-02-16T00:12:16;12.20;99.90
54898;DHT22;40800;52.704;6.398;2024-02-16T00:14:42;13.10;99.90
54898;DHT22;40800;52.704;6.398;2024-02-16T00:17:10;12.50;99.90
54898;DHT22;40800;52.704;6.398;2024-02-16T00:19:36;12.90;99.90
54898;DHT22;40800;52.704;6.398;2024-02-16T00:22:02;13.60;99.90
54898;DHT22;40800;52.704;6.398;2024-02-16T00:24:27;12.10;99.90
54898;DHT22;40800;52.704;6.398;2024-02-16T00:26:54;12.20;99.90
54898;DHT22;40800;52.704;6.398;2024-02-16T00:29:19;12.60;99.90
54898;DHT22;40800;52.704;6.398;2024-02-16T00:31:45;12.20;99.90
54898;DHT22;40800;52.704;6.398;2024-02-16T00:34:10;12.80;99.90
54898;DHT22;40800;52.704;6.398;2024-02-16T00:36:36;13.30;99.90
54898;DHT22;40800;52.704;6.398;2024-02-16T00:39:02;12.30;99.90
54898;DHT22;40800;52.704;6.398;2024-02-16T00:41:29;13.10;99.90
54898;DHT22;40800;52.704;6.398;2024-02-16T00:43:55;12.20;99.90
54898;DHT22;40800;52.704;6.398;2024-02-16T00:46:22;13.10;99.90
54898;DHT22;40800;52.704;6.398;2024-02-16T00:48:52;13.60;99.90
54898;DHT22;40800;52.704;6.398;2024-02-16T00:51:17;13.50;99.90
54898;DHT22;40800;52.704;6.398;2024-02-16T00:53:43;13.50;99.90
54898;DHT22;40800;52.704;6.398;2024-02-16T00:56:09;12.00;99.90
54898;DHT22;40800;52.704;6.398;2024-02-16T00:58:35;12.20;99.90
54898;DHT22;40800;52.704;6.398;2024-02-16T01:01:12;12.30;99.90
54898;DHT22;40800;52.704;6.398;2024-02-16T01:03:39;12.60;99.90
54898;DHT22;40800;52.704;6.398;2024-02-16T01:06:05;13.20;99.90
54898;DHT22;40800;52.704;6.398;2024-02-16T01:08:31;12.90;99.90
54898;DHT22;40800;52.704;6.398;2024-02-16T01:10:57;13.10;99.90
54898;DHT22;40800;52.704;6.398;2024-02-16T01:13:23;12.90;99.90
54898;DHT22;40800;52.704;6.398;2024-02-16T01:15:48;11.80;99.90
54898;DHT22;40800;52.704;6.398;2024-02-16T01:18:15;12.10;99.90
54898;DHT22;40800;52.704;6.398;2024-02-16T01:20:41;11.80;99.90
54898;DHT22;40800;52.704;6.398;2024-02-16T01:23:06;12.80;99.90
54898;DHT22;40800;52.704;6.398;2024-02-16T01:25:32;13.10;99.90
54898;DHT22;40800;52.704;6.398;2024-02-16T01:27:58;11.70;99.90
54898;DHT22;40800;52.704;6.398;2024-02-16T01:30:24;13.00;99.90
54898;DHT22;40800;52.704;6.398;2024-02-16T01:32:50;11.90;99.90
54898;DHT22;40800;52.704;6.398;2024-02-16T01:35:15;12.50;99.90
54898;DHT22;40800;52.704;6.398;2024-02-16T01:37:41;13.10;99.90
54898;DHT22;40800;52.704;6.398;2024-02-16T01:40:10;12.00;99.90
54898;DHT22;40800;52.704;6.398;2024-02-16T01:42:49;11.70;99.90
54898;DHT22;40800;52.704;6.398;2024-02-16T01:45:14;11.80;99.90
54898;DHT22;40800;52.704;6.398;2024-02-16T01:47:43;12.10;99.90
54898;DHT22;40800;52.704;6.398;2024-02-16T01:50:09;12.20;99.90
54898;DHT22;40800;52.704;6.398;2024-02-16T01:52:36;13.00;99.90
54898;DHT22;40800;52.704;6.398;2024-02-16T01:55:06;12.50;99.90
54898;DHT22;40800;52.704;6.398;2024-02-16T01:57:35;13.00;99.90
54898;DHT22;40800;52.704;6.398;2024-02-16T02:00:01;12.50;99.90
54898;DHT22;40800;52.704;6.398;2024-02-16T02:02:28;12.40;99.90
54898;DHT22;40800;52.704;6.398;2024-02-16T02:04:53;13.00;99.90
54898;DHT22;40800;52.704;6.398;2024-02-16T02:07:25;12.00;99.90
54898;DHT22;40800;52.704;6.398;2024-02-16T02:09:54;12.10;99.90
54898;DHT22;40800;52.704;6.398;2024-02-16T02:12:20;11.90;99.90
54898;DHT22;40800;52.704;6.398;2024-02-16T02:14:47;11.80;99.90
54898;DHT22;40800;52.704;6.398;2024-02-16T02:17:12;11.90;99.90
54898;DHT22;40800;52.704;6.398;2024-02-16T02:19:38;12.90;99.90
54898;DHT22;40800;52.704;6.398;2024-02-16T02:22:04;13.00;99.90
54898;DHT22;40800;52.704;6.398;2024-02-16T02:24:30;12.90;99.90
54898;DHT22;40800;52.704;6.398;2024-02-16T02:26:55;12.80;99.90
54898;DHT22;40800;52.704;6.398;2024-02-16T02:29:22;11.90;99.90
54898;DHT22;40800;52.704;6.398;2024-02-16T02:31:48;12.20;99.90
54898;DHT22;40800;52.704;6.398;2024-02-16T02:34:13;12.30;99.90
54898;DHT22;40800;52.704;6.398;2024-02-16T02:36:40;12.80;99.90
54898;DHT22;40800;52.704;6.398;2024-02-16T02:39:06;12.70;99.90
54898;DHT22;40800;52.704;6.398;2024-02-16T02:41:32;12.30;99.90
54898;DHT22;40800;52.704;6.398;2024-02-16T02:43:58;12.60;99.90
54898;DHT22;40800;52.704;6.398;2024-02-16T02:46:23;12.60;99.90
54898;DHT22;40800;52.704;6.398;2024-02-16T02:48:50;12.60;99.90
54898;DHT22;40800;52.704;6.398;2024-02-16T02:51:16;11.70;99.90
54898;DHT22;40800;52.704;6.398;2024-02-16T02:53:42;12.00;99.90
54898;DHT22;40800;52.704;6.398;2024-02-16T02:56:08;12.70;99.90
54898;DHT22;40800;52.704;6.398;2024-02-16T02:58:34;12.70;99.90
54898;DHT22;40800;52.704;6.398;2024-02-16T03:01:00;11.80;99.90
54898;DHT22;40800;52.704;6.398;2024-02-16T03:03:25;11.80;99.90
54898;DHT22;40800;52.704;6.398;2024-02-16T03:05:51;11.90;99.90
54898;DHT22;40800;52.704;6.398;2024-02-16T03:08:17;12.20;99.90
54898;DHT22;40800;52.704;6.398;2024-02-16T03:10:43;11.70;99.90
54898;DHT22;40800;52.704;6.398;2024-02-16T03:13:09;12.40;99.90
54898;DHT22;40800;52.704;6.398;2024-02-16T03:15:38;12.00;99.90
54898;DHT22;40800;52.704;6.398;2024-02-16T03:18:05;12.50;99.90
54898;DHT22;40800;52.704;6.398;2024-02-16T03:20:34;12.40;99.90
54898;DHT22;40800;52.704;6.398;2024-02-16T03:23:00;12.80;99.90
54898;DHT22;40800;52.704;6.398;2024-02-16T03:25:25;12.20;99.90
54898;DHT22;40800;52.704;6.398;2024-02-16T03:27:51;12.60;99.90
54898;DHT22;40800;52.704;6.398;2024-02-16T03:30:18;11.80;99.90
54898;DHT22;40800;52.704;6.398;2024-02-16T03:32:51;12.70;99.90
54898;DHT22;40800;52.704;6.398;2024-02-16T03:35:20;12.70;99.90
54898;DHT22;40800;52.704;6.398;2024-02-16T03:37:46;12.00;99.90
54898;DHT22;40800;52.704;6.398;2024-02-16T03:40:11;12.70;99.90
54898;DHT22;40800;52.704;6.398;2024-02-16T03:42:38;12.10;99.90
54898;DHT22;40800;52.704;6.398;2024-02-16T03:45:04;12.00;99.90
54898;DHT22;40800;52.704;6.398;2024-02-16T03:47:30;12.40;99.90
54898;DHT22;40800;52.704;6.398;2024-02-16T03:49:55;11.80;99.90
54898;DHT22;40800;52.704;6.398;2024-02-16T03:52:21;11.90;99.90
54898;DHT22;40800;52.704;6.398;2024-02-16T03:54:47;12.70;99.90
54898;DHT22;40800;52.704;6.398;2024-02-16T03:57:16;12.80;99.90
54898;DHT22;40800;52.704;6.398;2024-02-16T03:59:45;12.60;99.90
54898;DHT22;40800;52.704;6.398;2024-02-16T04:02:11;12.00;99.90
54898;DHT22;40800;52.704;6.398;2024-02-16T04:04:38;12.60;99.90
54898;DHT22;40800;52.704;6.398;2024-02-16T04:07:04;12.70;99.90
54898;DHT22;40800;52.704;6.398;2024-02-16T04:09:32;12.80;99.90
54898;DHT22;40800;52.704;6.398;2024-02-16T04:11:58;12.80;99.90
54898;DHT22;40800;52.704;6.398;2024-02-16T04:14:24;12.60;99.90
54898;DHT22;40800;52.704;6.398;2024-02-16T04:16:49;11.90;99.90
54898;DHT22;40800;52.704;6.398;2024-02-16T04:19:15;11.90;99.90
54898;DHT22;40800;52.704;6.398;2024-02-16T04:21:41;12.50;99.90
54898;DHT22;40800;52.704;6.398;2024-02-16T04:24:07;12.70;99.90
54898;DHT22;40800;52.704;6.398;2024-02-16T04:26:33;12.00;99.90
54898;DHT22;40800;52.704;6.398;2024-02-16T04:28:59;11.80;99.90
54898;DHT22;40800;52.704;6.398;2024-02-16T04:31:24;11.90;99.90
54898;DHT22;40800;52.704;6.398;2024-02-16T04:33:50;11.90;99.90
54898;DHT22;40800;52.704;6.398;2024-02-16T04:36:16;11.80;99.90
54898;DHT22;40800;52.704;6.398;2024-02-16T04:38:41;12.60;99.90
54898;DHT22;40800;52.704;6.398;2024-02-16T04:41:08;12.10;99.90
54898;DHT22;40800;52.704;6.398;2024-02-16T04:43:34;12.10;99.90
54898;DHT22;40800;52.704;6.398;2024-02-16T04:46:00;11.70;99.90
54898;DHT22;40800;52.704;6.398;2024-02-16T04:48:26;12.40;99.90
54898;DHT22;40800;52.704;6.398;2024-02-16T04:50:51;11.80;99.90
54898;DHT22;40800;52.704;6.398;2024-02-16T04:53:17;12.10;99.90
54898;DHT22;40800;52.704;6.398;2024-02-16T04:55:42;11.60;99.90
54898;DHT22;40800;52.704;6.398;2024-02-16T04:58:08;12.00;99.90
54898;DHT22;40800;52.704;6.398;2024-02-16T05:00:38;11.70;99.90
54898;DHT22;40800;52.704;6.398;2024-02-16T05:03:04;11.60;99.90
54898;DHT22;40800;52.704;6.398;2024-02-16T05:05:29;11.90;99.90
54898;DHT22;40800;52.704;6.398;2024-02-16T05:07:56;11.80;99.90
54898;DHT22;40800;52.704;6.398;2024-02-16T05:10:22;11.50;99.90
54898;DHT22;40800;52.704;6.398;2024-02-16T05:12:48;11.70;99.90
54898;DHT22;40800;52.704;6.398;2024-02-16T05:15:14;12.00;99.90
54898;DHT22;40800;52.704;6.398;2024-02-16T05:17:40;12.00;99.90
54898;DHT22;40800;52.704;6.398;2024-02-16T05:20:14;11.70;99.90
54898;DHT22;40800;52.704;6.398;2024-02-16T05:22:44;12.60;99.90
54898;DHT22;40800;52.704;6.398;2024-02-16T05:25:11;12.20;99.90
54898;DHT22;40800;52.704;6.398;2024-02-16T05:27:37;12.60;99.90
54898;DHT22;40800;52.704;6.398;2024-02-16T05:30:04;12.50;99.90
54898;DHT22;40800;52.704;6.398;2024-02-16T05:32:35;12.50;99.90
54898;DHT22;40800;52.704;6.398;2024-02-16T05:35:05;12.30;99.90
54898;DHT22;40800;52.704;6.398;2024-02-16T05:37:40;12.70;99.90
54898;DHT22;40800;52.704;6.398;2024-02-16T05:40:10;12.70;99.90
54898;DHT22;40800;52.704;6.398;2024-02-16T05:42:47;11.80;99.90
54898;DHT22;40800;52.704;6.398;2024-02-16T05:45:13;12.50;99.90
54898;DHT22;40800;52.704;6.398;2024-02-16T05:47:45;11.90;99.90
54898;DHT22;40800;52.704;6.398;2024-02-16T05:50:14;11.90;99.90
54898;DHT22;40800;52.704;6.398;2024-02-16T05:52:41;12.90;99.90
54898;DHT22;40800;52.704;6.398;2024-02-16T05:55:11;13.10;99.90
54898;DHT22;40800;52.704;6.398;2024-02-16T05:57:37;12.80;99.90
54898;DHT22;40800;52.704;6.398;2024-02-16T06:00:06;12.20;99.90
54898;DHT22;40800;52.704;6.398;2024-02-16T06:02:33;11.90;99.90
54898;DHT22;40800;52.704;6.398;2024-02-16T06:05:02;12.80;99.90
54898;DHT22;40800;52.704;6.398;2024-02-16T06:07:28;11.90;99.90
54898;DHT22;40800;52.704;6.398;2024-02-16T06:09:57;11.90;99.90
54898;DHT22;40800;52.704;6.398;2024-02-16T06:12:23;12.50;99.90
54898;DHT22;40800;52.704;6.398;2024-02-16T06:14:49;12.40;99.90
54898;DHT22;40800;52.704;6.398;2024-02-16T06:17:15;11.90;99.90
54898;DHT22;40800;52.704;6.398;2024-02-16T06:19:42;11.90;99.90
54898;DHT22;40800;52.704;6.398;2024-02-16T06:22:07;11.80;99.90
54898;DHT22;40800;52.704;6.398;2024-02-16T06:24:34;11.90;99.90
54898;DHT22;40800;52.704;6.398;2024-02-16T06:27:00;11.90;99.90
54898;DHT22;40800;52.704;6.398;2024-02-16T06:29:26;11.90;99.90
54898;DHT22;40800;52.704;6.398;2024-02-16T06:31:52;11.80;99.90
54898;DHT22;40800;52.704;6.398;2024-02-16T06:34:18;12.50;99.90
54898;DHT22;40800;52.704;6.398;2024-02-16T06:36:43;11.80;99.90
54898;DHT22;40800;52.704;6.398;2024-02-16T06:39:10;12.30;99.90
54898;DHT22;40800;52.704;6.398;2024-02-16T06:41:36;12.50;99.90
54898;DHT22;40800;52.704;6.398;2024-02-16T06:44:03;11.80;99.90
54898;DHT22;40800;52.704;6.398;2024-02-16T06:46:29;12.10;99.90
54898;DHT22;40800;52.704;6.398;2024-02-16T06:48:55;11.70;99.90
54898;DHT22;40800;52.704;6.398;2024-02-16T06:51:25;12.40;99.90
54898;DHT22;40800;52.704;6.398;2024-02-16T06:53:52;11.70;99.90
54898;DHT22;40800;52.704;6.398;2024-02-16T06:56:18;11.80;99.90
54898;DHT22;40800;52.704;6.398;2024-02-16T06:58:44;12.50;99.90
54898;DHT22;40800;52.704;6.398;2024-02-16T07:01:12;12.10;99.90
54898;DHT22;40800;52.704;6.398;2024-02-16T07:03:38;11.90;99.90
54898;DHT22;40800;52.704;6.398;2024-02-16T07:06:04;12.50;99.90
54898;DHT22;40800;52.704;6.398;2024-02-16T07:08:33;11.90;99.90
54898;DHT22;40800;52.704;6.398;2024-02-16T07:10:58;12.60;99.90
54898;DHT22;40800;52.704;6.398;2024-02-16T07:13:24;11.80;99.90
54898;DHT22;40800;52.704;6.398;2024-02-16T07:15:53;12.10;99.90
54898;DHT22;40800;52.704;6.398;2024-02-16T07:18:19;12.40;99.90
54898;DHT22;40800;52.704;6.398;2024-02-16T07:20:45;12.70;99.90
54898;DHT22;40800;52.704;6.398;2024-02-16T07:23:10;12.80;99.90
54898;DHT22;40800;52.704;6.398;2024-02-16T07:25:36;12.60;99.90
54898;DHT22;40800;52.704;6.398;2024-02-16T07:28:02;12.70;99.90
54898;DHT22;40800;52.704;6.398;2024-02-16T07:30:27;12.80;99.90
54898;DHT22;40800;52.704;6.398;2024-02-16T07:32:53;12.60;99.90
54898;DHT22;40800;52.704;6.398;2024-02-16T07:35:19;13.00;99.90
54898;DHT22;40800;52.704;6.398;2024-02-16T07:37:44;12.70;99.90
54898;DHT22;40800;52.704;6.398;2024-02-16T07:40:10;12.40;99.90
54898;DHT22;40800;52.704;6.398;2024-02-16T07:42:39;13.00;99.90
54898;DHT22;40800;52.704;6.398;2024-02-16T07:45:08;13.00;99.90
54898;DHT22;40800;52.704;6.398;2024-02-16T07:47:35;12.40;99.90
54898;DHT22;40800;52.704;6.398;2024-02-16T07:50:01;12.70;99.90
54898;DHT22;40800;52.704;6.398;2024-02-16T07:52:26;13.10;99.90
54898;DHT22;40800;52.704;6.398;2024-02-16T07:54:52;12.40;99.90
54898;DHT22;40800;52.704;6.398;2024-02-16T07:57:18;12.60;99.90
54898;DHT22;40800;52.704;6.398;2024-02-16T07:59:43;13.20;99.90
54898;DHT22;40800;52.704;6.398;2024-02-16T08:02:09;12.50;99.90
54898;DHT22;40800;52.704;6.398;2024-02-16T08:04:35;13.20;99.90
54898;DHT22;40800;52.704;6.398;2024-02-16T08:07:01;12.80;99.90
54898;DHT22;40800;52.704;6.398;2024-02-16T08:09:27;13.00;99.90
54898;DHT22;40800;52.704;6.398;2024-02-16T08:11:53;13.10;99.90
54898;DHT22;40800;52.704;6.398;2024-02-16T08:14:18;13.30;99.90
54898;DHT22;40800;52.704;6.398;2024-02-16T08:16:44;12.60;99.90
54898;DHT22;40800;52.704;6.398;2024-02-16T08:19:10;12.70;99.90
54898;DHT22;40800;52.704;6.398;2024-02-16T08:21:36;13.00;99.90
54898;DHT22;40800;52.704;6.398;2024-02-16T08:24:01;13.40;99.90
54898;DHT22;40800;52.704;6.398;2024-02-16T08:26:27;12.90;99.90
54898;DHT22;40800;52.704;6.398;2024-02-16T08:28:52;13.50;99.90
54898;DHT22;40800;52.704;6.398;2024-02-16T08:31:18;13.50;99.90
54898;DHT22;40800;52.704;6.398;2024-02-16T08:33:45;13.40;99.90
54898;DHT22;40800;52.704;6.398;2024-02-16T08:36:12;13.50;99.90
54898;DHT22;40800;52.704;6.398;2024-02-16T08:38:38;13.60;99.90
54898;DHT22;40800;52.704;6.398;2024-02-16T08:41:03;12.90;99.90
54898;DHT22;40800;52.704;6.398;2024-02-16T08:43:29;13.60;99.90
54898;DHT22;40800;52.704;6.398;2024-02-16T08:45:55;13.10;99.90
54898;DHT22;40800;52.704;6.398;2024-02-16T08:48:22;13.60;99.90
54898;DHT22;40800;52.704;6.398;2024-02-16T08:50:47;13.80;99.90
54898;DHT22;40800;52.704;6.398;2024-02-16T08:53:13;13.30;99.90
54898;DHT22;40800;52.704;6.398;2024-02-16T08:55:40;14.00;99.90
54898;DHT22;40800;52.704;6.398;2024-02-16T08:58:09;13.80;99.90
54898;DHT22;40800;52.704;6.398;2024-02-16T09:00:34;13.50;99.90
54898;DHT22;40800;52.704;6.398;2024-02-16T09:03:00;13.60;99.90
54898;DHT22;40800;52.704;6.398;2024-02-16T09:05:28;13.90;99.90
54898;DHT22;40800;52.704;6.398;2024-02-16T09:07:53;14.20;99.90
54898;DHT22;40800;52.704;6.398;2024-02-16T09:10:19;14.20;99.90
54898;DHT22;40800;52.704;6.398;2024-02-16T09:12:45;13.80;99.90
54898;DHT22;40800;52.704;6.398;2024-02-16T09:15:11;14.30;99.90
54898;DHT22;40800;52.704;6.398;2024-02-16T09:17:37;13.70;99.90
54898;DHT22;40800;52.704;6.398;2024-02-16T09:20:03;13.70;99.90
54898;DHT22;40800;52.704;6.398;2024-02-16T09:22:30;14.30;99.90
54898;DHT22;40800;52.704;6.398;2024-02-16T09:24:55;14.30;99.90
54898;DHT22;40800;52.704;6.398;2024-02-16T09:27:25;14.40;99.90
54898;DHT22;40800;52.704;6.398;2024-02-16T09:29:51;14.20;99.90
54898;DHT22;40800;52.704;6.398;2024-02-16T09:32:16;14.40;99.90
54898;DHT22;40800;52.704;6.398;2024-02-16T09:34:42;14.50;99.90
54898;DHT22;40800;52.704;6.398;2024-02-16T09:37:07;13.90;99.90
54898;DHT22;40800;52.704;6.398;2024-02-16T09:39:33;14.50;99.90
54898;DHT22;40800;52.704;6.398;2024-02-16T09:41:59;14.50;99.90
54898;DHT22;40800;52.704;6.398;2024-02-16T09:44:26;14.90;99.90
54898;DHT22;40800;52.704;6.398;2024-02-16T09:46:54;14.10;99.90
54898;DHT22;40800;52.704;6.398;2024-02-16T09:49:20;14.70;99.90
54898;DHT22;40800;52.704;6.398;2024-02-16T09:51:46;14.80;99.90
54898;DHT22;40800;52.704;6.398;2024-02-16T09:54:12;14.70;99.90
54898;DHT22;40800;52.704;6.398;2024-02-16T09:56:38;14.40;99.90
54898;DHT22;40800;52.704;6.398;2024-02-16T09:59:03;15.00;99.90
54898;DHT22;40800;52.704;6.398;2024-02-16T10:01:29;14.70;99.90
54898;DHT22;40800;52.704;6.398;2024-02-16T10:04:06;14.90;99.90
54898;DHT22;40800;52.704;6.398;2024-02-16T10:06:48;14.80;99.90
54898;DHT22;40800;52.704;6.398;2024-02-16T10:09:27;15.00;99.90
54898;DHT22;40800;52.704;6.398;2024-02-16T10:11:56;14.90;99.90
54898;DHT22;40800;52.704;6.398;2024-02-16T10:14:22;15.40;99.90
54898;DHT22;40800;52.704;6.398;2024-02-16T10:16:58;15.00;99.90
54898;DHT22;40800;52.704;6.398;2024-02-16T10:19:24;15.00;99.90
54898;DHT22;40800;52.704;6.398;2024-02-16T10:21:49;15.00;99.90
54898;DHT22;40800;52.704;6.398;2024-02-16T10:24:21;15.20;99.90
54898;DHT22;40800;52.704;6.398;2024-02-16T10:26:47;14.80;99.90
54898;DHT22;40800;52.704;6.398;2024-02-16T10:29:17;15.30;99.90
54898;DHT22;40800;52.704;6.398;2024-02-16T10:31:45;15.20;99.90
54898;DHT22;40800;52.704;6.398;2024-02-16T10:34:11;14.70;99.90
54898;DHT22;40800;52.704;6.398;2024-02-16T10:36:38;15.10;99.90
54898;DHT22;40800;52.704;6.398;2024-02-16T10:39:05;15.00;99.90
54898;DHT22;40800;52.704;6.398;2024-02-16T10:41:37;14.70;99.90
54898;DHT22;40800;52.704;6.398;2024-02-16T10:44:04;15.00;99.90
54898;DHT22;40800;52.704;6.398;2024-02-16T10:46:31;14.80;99.90
54898;DHT22;40800;52.704;6.398;2024-02-16T10:48:57;14.20;99.90
54898;DHT22;40800;52.704;6.398;2024-02-16T10:51:32;15.10;99.90
54898;DHT22;40800;52.704;6.398;2024-02-16T10:54:01;13.80;99.90
54898;DHT22;40800;52.704;6.398;2024-02-16T10:56:37;14.90;99.90
54898;DHT22;40800;52.704;6.398;2024-02-16T10:59:10;14.80;99.90
54898;DHT22;40800;52.704;6.398;2024-02-16T11:01:40;13.80;99.90
54898;DHT22;40800;52.704;6.398;2024-02-16T11:04:11;14.90;99.90
54898;DHT22;40800;52.704;6.398;2024-02-16T11:06:52;14.80;99.90
54898;DHT22;40800;52.704;6.398;2024-02-16T11:09:29;14.80;99.90
54898;DHT22;40800;52.704;6.398;2024-02-16T11:11:58;13.70;99.90
54898;DHT22;40800;52.704;6.398;2024-02-16T11:14:24;14.60;99.90
54898;DHT22;40800;52.704;6.398;2024-02-16T11:16:55;14.60;99.90
54898;DHT22;40800;52.704;6.398;2024-02-16T11:19:22;13.70;99.90
54898;DHT22;40800;52.704;6.398;2024-02-16T11:22:03;14.60;99.90
54898;DHT22;40800;52.704;6.398;2024-02-16T11:24:33;13.60;99.90
54898;DHT22;40800;52.704;6.398;2024-02-16T11:27:02;14.80;99.90
54898;DHT22;40800;52.704;6.398;2024-02-16T11:29:32;14.50;99.90
54898;DHT22;40800;52.704;6.398;2024-02-16T11:31:58;13.40;99.90
54898;DHT22;40800;52.704;6.398;2024-02-16T11:34:25;13.40;99.90
54898;DHT22;40800;52.704;6.398;2024-02-16T11:36:58;14.60;99.90
54898;DHT22;40800;52.704;6.398;2024-02-16T11:39:25;15.00;99.90
54898;DHT22;40800;52.704;6.398;2024-02-16T11:42:10;12.80;99.90
54898;DHT22;40800;52.704;6.398;2024-02-16T11:44:38;13.10;99.90
54898;DHT22;40800;52.704;6.398;2024-02-16T11:47:06;12.80;99.90
54898;DHT22;40800;52.704;6.398;2024-02-16T11:49:36;15.00;99.90
54898;DHT22;40800;52.704;6.398;2024-02-16T11:52:04;13.00;99.90
54898;DHT22;40800;52.704;6.398;2024-02-16T11:54:30;14.80;99.90
54898;DHT22;40800;52.704;6.398;2024-02-16T11:56:57;14.60;99.90
54898;DHT22;40800;52.704;6.398;2024-02-16T11:59:22;12.80;99.90
54898;DHT22;40800;52.704;6.398;2024-02-16T12:01:58;12.80;99.90
54898;DHT22;40800;52.704;6.398;2024-02-16T12:04:27;12.60;99.90
54898;DHT22;40800;52.704;6.398;2024-02-16T12:09:22;14.90;99.90
54898;DHT22;40800;52.704;6.398;2024-02-16T12:11:52;12.50;99.90
54898;DHT22;40800;52.704;6.398;2024-02-16T12:14:18;12.50;99.90
54898;DHT22;40800;52.704;6.398;2024-02-16T12:16:51;15.10;99.90
54898;DHT22;40800;52.704;6.398;2024-02-16T12:19:18;12.90;99.90
54898;DHT22;40800;52.704;6.398;2024-02-16T12:21:49;12.60;99.90
54898;DHT22;40800;52.704;6.398;2024-02-16T12:24:15;13.20;99.90
54898;DHT22;40800;52.704;6.398;2024-02-16T12:26:40;13.30;99.90
54898;DHT22;40800;52.704;6.398;2024-02-16T12:29:06;15.20;99.90
54898;DHT22;40800;52.704;6.398;2024-02-16T12:31:34;12.50;99.90
54898;DHT22;40800;52.704;6.398;2024-02-16T12:34:03;14.80;99.90
54898;DHT22;40800;52.704;6.398;2024-02-16T12:36:30;13.70;99.90
54898;DHT22;40800;52.704;6.398;2024-02-16T12:38:56;12.60;99.90
54898;DHT22;40800;52.704;6.398;2024-02-16T12:41:21;12.80;99.90
54898;DHT22;40800;52.704;6.398;2024-02-16T12:43:47;12.60;99.90
54898;DHT22;40800;52.704;6.398;2024-02-16T12:46:14;14.60;99.90
54898;DHT22;40800;52.704;6.398;2024-02-16T12:48:39;14.60;99.90
54898;DHT22;40800;52.704;6.398;2024-02-16T12:51:05;14.90;99.90
54898;DHT22;40800;52.704;6.398;2024-02-16T12:53:30;14.60;99.90
54898;DHT22;40800;52.704;6.398;2024-02-16T12:56:06;15.20;99.90
54898;DHT22;40800;52.704;6.398;2024-02-16T12:58:32;12.30;99.90
54898;DHT22;40800;52.704;6.398;2024-02-16T13:00:58;15.00;99.90
54898;DHT22;40800;52.704;6.398;2024-02-16T13:03:23;14.10;99.90
54898;DHT22;40800;52.704;6.398;2024-02-16T13:05:49;15.00;99.90
54898;DHT22;40800;52.704;6.398;2024-02-16T13:08:14;12.20;99.90
54898;DHT22;40800;52.704;6.398;2024-02-16T13:10:41;12.20;99.90
54898;DHT22;40800;52.704;6.398;2024-02-16T13:13:07;12.60;99.90
54898;DHT22;40800;52.704;6.398;2024-02-16T13:15:33;13.90;99.90
54898;DHT22;40800;52.704;6.398;2024-02-16T13:17:59;12.50;99.90
54898;DHT22;40800;52.704;6.398;2024-02-16T13:20:24;12.90;99.90
54898;DHT22;40800;52.704;6.398;2024-02-16T13:22:50;14.10;99.90
54898;DHT22;40800;52.704;6.398;2024-02-16T13:25:16;12.90;99.90
54898;DHT22;40800;52.704;6.398;2024-02-16T13:27:42;12.80;99.90
54898;DHT22;40800;52.704;6.398;2024-02-16T13:30:08;12.50;99.90
54898;DHT22;40800;52.704;6.398;2024-02-16T13:32:34;13.70;99.90
54898;DHT22;40800;52.704;6.398;2024-02-16T13:35:02;14.70;99.90
54898;DHT22;40800;52.704;6.398;2024-02-16T13:37:28;12.80;99.90
54898;DHT22;40800;52.704;6.398;2024-02-16T13:39:53;15.10;99.90
54898;DHT22;40800;52.704;6.398;2024-02-16T13:42:19;13.50;99.90
54898;DHT22;40800;52.704;6.398;2024-02-16T13:44:45;15.10;99.90
54898;DHT22;40800;52.704;6.398;2024-02-16T13:47:10;14.90;99.90
54898;DHT22;40800;52.704;6.398;2024-02-16T13:49:36;13.70;99.90
54898;DHT22;40800;52.704;6.398;2024-02-16T13:52:02;12.70;99.90
54898;DHT22;40800;52.704;6.398;2024-02-16T13:54:28;12.80;99.90
54898;DHT22;40800;52.704;6.398;2024-02-16T13:56:53;13.80;99.90
54898;DHT22;40800;52.704;6.398;2024-02-16T13:59:19;14.80;99.90
54898;DHT22;40800;52.704;6.398;2024-02-16T14:01:45;13.30;99.90
54898;DHT22;40800;52.704;6.398;2024-02-16T14:04:11;14.80;99.90
54898;DHT22;40800;52.704;6.398;2024-02-16T14:06:38;14.90;99.90
54898;DHT22;40800;52.704;6.398;2024-02-16T14:09:04;15.10;99.90
54898;DHT22;40800;52.704;6.398;2024-02-16T14:11:35;13.10;99.90
54898;DHT22;40800;52.704;6.398;2024-02-16T14:14:01;12.30;99.90
54898;DHT22;40800;52.704;6.398;2024-02-16T14:16:27;12.40;99.90
54898;DHT22;40800;52.704;6.398;2024-02-16T14:18:53;15.00;99.90
54898;DHT22;40800;52.704;6.398;2024-02-16T14:21:18;12.50;99.90
54898;DHT22;40800;52.704;6.398;2024-02-16T14:23:44;12.80;99.90
54898;DHT22;40800;52.704;6.398;2024-02-16T14:26:10;14.70;99.90
54898;DHT22;40800;52.704;6.398;2024-02-16T14:28:36;15.20;99.90
54898;DHT22;40800;52.704;6.398;2024-02-16T14:31:02;14.30;99.90
54898;DHT22;40800;52.704;6.398;2024-02-16T14:33:28;12.80;99.90
54898;DHT22;40800;52.704;6.398;2024-02-16T14:35:53;14.40;99.90
54898;DHT22;40800;52.704;6.398;2024-02-16T14:38:19;12.40;99.90
54898;DHT22;40800;52.704;6.398;2024-02-16T14:40:45;12.50;99.90
54898;DHT22;40800;52.704;6.398;2024-02-16T14:43:10;14.20;99.90
54898;DHT22;40800;52.704;6.398;2024-02-16T14:45:36;13.30;99.90
54898;DHT22;40800;52.704;6.398;2024-02-16T14:48:04;12.40;99.90
54898;DHT22;40800;52.704;6.398;2024-02-16T14:50:30;12.00;99.90
54898;DHT22;40800;52.704;6.398;2024-02-16T14:52:56;13.80;99.90
54898;DHT22;40800;52.704;6.398;2024-02-16T14:55:21;14.50;99.90
54898;DHT22;40800;52.704;6.398;2024-02-16T14:57:48;12.10;99.90
54898;DHT22;40800;52.704;6.398;2024-02-16T15:00:14;14.40;99.90
54898;DHT22;40800;52.704;6.398;2024-02-16T15:02:40;14.00;99.90
54898;DHT22;40800;52.704;6.398;2024-02-16T15:05:09;12.60;99.90
54898;DHT22;40800;52.704;6.398;2024-02-16T15:07:35;11.90;99.90
54898;DHT22;40800;52.704;6.398;2024-02-16T15:10:02;14.60;99.90
54898;DHT22;40800;52.704;6.398;2024-02-16T15:12:28;13.00;99.90
54898;DHT22;40800;52.704;6.398;2024-02-16T15:14:53;11.90;99.90
54898;DHT22;40800;52.704;6.398;2024-02-16T15:17:20;12.00;99.90
54898;DHT22;40800;52.704;6.398;2024-02-16T15:19:46;12.50;99.90
54898;DHT22;40800;52.704;6.398;2024-02-16T15:22:12;12.90;99.90
54898;DHT22;40800;52.704;6.398;2024-02-16T15:24:37;12.20;99.90
54898;DHT22;40800;52.704;6.398;2024-02-16T15:27:03;14.20;99.90
54898;DHT22;40800;52.704;6.398;2024-02-16T15:29:30;11.90;99.90